sensor_id;sensor_type;location;lat;lon;timestamp;pressure;altitude;pressure_sealevel;temperature
78917;BMP280;68315;48.608;11.436;2024-02-15T00:00:56;97701.09;;;8.16
78917;BMP280;68315;48.608;11.436;2024-02-15T00:03:24;97696.63;;;8.13
78917;BMP280;68315;48.608;11.436;2024-02-15T00:05:50;97704.34;;;8.09
78917;BMP280;68315;48.608;11.436;2024-02-15T00:08:15;97708.09;;;8.06
78917;BMP280;68315;48.608;11.436;2024-02-15T00:10:40;97706.38;;;8.03
78917;BMP280;68315;48.608;11.436;2024-02-15T00:13:05;97710.09;;;8.00
78917;BMP280;68315;48.608;11.436;2024-02-15T00:15:31;97715.78;;;7.97
78917;BMP280;68315;48.608;11.436;2024-02-15T00:17:56;97718.03;;;7.93
78917;BMP280;68315;48.608;11.436;2024-02-15T00:20:21;97719.53;;;7.88
78917;BMP280;68315;48.608;11.436;2024-02-15T00:22:47;97722.50;;;7.84
78917;BMP280;68315;48.608;11.436;2024-02-15T00:25:13;97713.81;;;7.80
78917;BMP280;68315;48.608;11.436;2024-02-15T00:27:39;97718.28;;;7.78
78917;BMP280;68315;48.608;11.436;2024-02-15T00:30:04;97721.72;;;7.73
78917;BMP280;68315;48.608;11.436;2024-02-15T00:32:32;97722.50;;;7.68
78917;BMP280;68315;48.608;11.436;2024-02-15T00:34:57;97720.50;;;7.63
78917;BMP280;68315;48.608;11.436;2024-02-15T00:37:23;97723.47;;;7.59
78917;BMP280;68315;48.608;11.436;2024-02-15T00:39:48;97729.69;;;7.54
78917;BMP280;68315;48.608;11.436;2024-02-15T00:42:13;97716.53;;;7.53
78917;BMP280;68315;48.608;11.436;2024-02-15T00:44:39;97715.47;;;7.50
78917;BMP280;68315;48.608;11.436;2024-02-15T00:47:04;97722.25;;;7.49
78917;BMP280;68315;48.608;11.436;2024-02-15T00:49:30;97721.97;;;7.47
78917;BMP280;68315;48.608;11.436;2024-02-15T00:51:55;97719.47;;;7.44
78917;BMP280;68315;48.608;11.436;2024-02-15T00:54:20;97712.50;;;7.43
78917;BMP280;68315;48.608;11.436;2024-02-15T00:56:45;97721.94;;;7.42
78917;BMP280;68315;48.608;11.436;2024-02-15T00:59:11;97725.41;;;7.42
78917;BMP280;68315;48.608;11.436;2024-02-15T01:01:36;97715.75;;;7.41
78917;BMP280;68315;48.608;11.436;2024-02-15T01:04:03;97711.75;;;7.42
78917;BMP280;68315;48.608;11.436;2024-02-15T01:06:28;97714.00;;;7.44
78917;BMP280;68315;48.608;11.436;2024-02-15T01:08:54;97722.47;;;7.46
78917;BMP280;68315;48.608;11.436;2024-02-15T01:11:19;97718.50;;;7.47
78917;BMP280;68315;48.608;11.436;2024-02-15T01:13:44;97719.97;;;7.48
78917;BMP280;68315;48.608;11.436;2024-02-15T01:16:09;97716.78;;;7.49
78917;BMP280;68315;48.608;11.436;2024-02-15T01:18:35;97720.97;;;7.50
78917;BMP280;68315;48.608;11.436;2024-02-15T01:21:00;97711.03;;;7.53
78917;BMP280;68315;48.608;11.436;2024-02-15T01:23:26;97707.06;;;7.54
78917;BMP280;68315;48.608;11.436;2024-02-15T01:25:52;97713.28;;;7.54
78917;BMP280;68315;48.608;11.436;2024-02-15T01:28:17;97715.25;;;7.54
78917;BMP280;68315;48.608;11.436;2024-02-15T01:30:42;97722.22;;;7.55
78917;BMP280;68315;48.608;11.436;2024-02-15T01:33:09;97708.56;;;7.55
78917;BMP280;68315;48.608;11.436;2024-02-15T01:35:34;97718.25;;;7.56
78917;BMP280;68315;48.608;11.436;2024-02-15T01:38:00;97712.06;;;7.55
78917;BMP280;68315;48.608;11.436;2024-02-15T01:40:25;97703.84;;;7.55
78917;BMP280;68315;48.608;11.436;2024-02-15T01:42:50;97706.31;;;7.53
78917;BMP280;68315;48.608;11.436;2024-02-15T01:45:16;97707.81;;;7.54
78917;BMP280;68315;48.608;11.436;2024-02-15T01:47:42;97703.56;;;7.53
78917;BMP280;68315;48.608;11.436;2024-02-15T01:50:10;97703.09;;;7.55
78917;BMP280;68315;48.608;11.436;2024-02-15T01:52:37;97703.09;;;7.55
78917;BMP280;68315;48.608;11.436;2024-02-15T01:55:03;97701.13;;;7.55
78917;BMP280;68315;48.608;11.436;2024-02-15T01:57:34;97699.09;;;7.56
78917;BMP280;68315;48.608;11.436;2024-02-15T02:00:00;97701.59;;;7.59
78917;BMP280;68315;48.608;11.436;2024-02-15T02:02:28;97700.38;;;7.60
78917;BMP280;68315;48.608;11.436;2024-02-15T02:04:55;97701.34;;;7.63
78917;BMP280;68315;48.608;11.436;2024-02-15T02:07:20;97698.63;;;7.68
78917;BMP280;68315;48.608;11.436;2024-02-15T02:09:46;97696.16;;;7.70
78917;BMP280;68315;48.608;11.436;2024-02-15T02:12:11;97703.88;;;7.72
78917;BMP280;68315;48.608;11.436;2024-02-15T02:14:36;97700.59;;;7.73
78917;BMP280;68315;48.608;11.436;2024-02-15T02:17:14;97702.88;;;7.75
78917;BMP280;68315;48.608;11.436;2024-02-15T02:19:40;97694.16;;;7.76
78917;BMP280;68315;48.608;11.436;2024-02-15T02:22:05;97695.38;;;7.75
78917;BMP280;68315;48.608;11.436;2024-02-15T02:24:33;97696.88;;;7.76
78917;BMP280;68315;48.608;11.436;2024-02-15T02:27:04;97692.91;;;7.77
78917;BMP280;68315;48.608;11.436;2024-02-15T02:29:29;97697.41;;;7.80
78917;BMP280;68315;48.608;11.436;2024-02-15T02:31:56;97688.69;;;7.82
78917;BMP280;68315;48.608;11.436;2024-02-15T02:34:22;97692.19;;;7.82
78917;BMP280;68315;48.608;11.436;2024-02-15T02:36:47;97679.25;;;7.83
78917;BMP280;68315;48.608;11.436;2024-02-15T02:39:13;97678.50;;;7.82
78917;BMP280;68315;48.608;11.436;2024-02-15T02:41:38;97674.50;;;7.83
78917;BMP280;68315;48.608;11.436;2024-02-15T02:44:03;97667.56;;;7.82
78917;BMP280;68315;48.608;11.436;2024-02-15T02:46:29;97679.25;;;7.83
78917;BMP280;68315;48.608;11.436;2024-02-15T02:48:54;97672.50;;;7.84
78917;BMP280;68315;48.608;11.436;2024-02-15T02:51:20;97672.03;;;7.86
78917;BMP280;68315;48.608;11.436;2024-02-15T02:53:45;97670.03;;;7.86
78917;BMP280;68315;48.608;11.436;2024-02-15T02:56:10;97673.53;;;7.87
78917;BMP280;68315;48.608;11.436;2024-02-15T02:58:35;97672.78;;;7.86
78917;BMP280;68315;48.608;11.436;2024-02-15T03:01:01;97683.72;;;7.86
78917;BMP280;68315;48.608;11.436;2024-02-15T03:03:26;97672.78;;;7.86
78917;BMP280;68315;48.608;11.436;2024-02-15T03:05:51;97672.25;;;7.88
78917;BMP280;68315;48.608;11.436;2024-02-15T03:08:17;97679.25;;;7.89
78917;BMP280;68315;48.608;11.436;2024-02-15T03:10:43;97677.72;;;7.88
78917;BMP280;68315;48.608;11.436;2024-02-15T03:13:08;97677.72;;;7.88
78917;BMP280;68315;48.608;11.436;2024-02-15T03:15:34;97671.78;;;7.89
78917;BMP280;68315;48.608;11.436;2024-02-15T03:17:59;97668.53;;;7.91
78917;BMP280;68315;48.608;11.436;2024-02-15T03:20:24;97666.31;;;7.89
78917;BMP280;68315;48.608;11.436;2024-02-15T03:22:57;97668.53;;;7.85
78917;BMP280;68315;48.608;11.436;2024-02-15T03:25:23;97665.31;;;7.81
78917;BMP280;68315;48.608;11.436;2024-02-15T03:27:50;97668.53;;;7.79
78917;BMP280;68315;48.608;11.436;2024-02-15T03:30:17;97662.31;;;7.79
78917;BMP280;68315;48.608;11.436;2024-02-15T03:32:42;97657.34;;;7.77
78917;BMP280;68315;48.608;11.436;2024-02-15T03:35:08;97665.06;;;7.79
78917;BMP280;68315;48.608;11.436;2024-02-15T03:37:33;97669.06;;;7.78
78917;BMP280;68315;48.608;11.436;2024-02-15T03:40:02;97666.31;;;7.78
78917;BMP280;68315;48.608;11.436;2024-02-15T03:42:29;97663.59;;;7.78
78917;BMP280;68315;48.608;11.436;2024-02-15T03:44:54;97665.56;;;7.77
78917;BMP280;68315;48.608;11.436;2024-02-15T03:47:20;97665.56;;;7.77
78917;BMP280;68315;48.608;11.436;2024-02-15T03:49:45;97666.31;;;7.78
78917;BMP280;68315;48.608;11.436;2024-02-15T03:52:11;97669.78;;;7.78
78917;BMP280;68315;48.608;11.436;2024-02-15T03:54:36;97680.72;;;7.78
78917;BMP280;68315;48.608;11.436;2024-02-15T03:57:02;97674.78;;;7.80
78917;BMP280;68315;48.608;11.436;2024-02-15T03:59:27;97670.06;;;7.80
78917;BMP280;68315;48.608;11.436;2024-02-15T04:01:53;97672.78;;;7.80
78917;BMP280;68315;48.608;11.436;2024-02-15T04:04:18;97678.50;;;7.82
78917;BMP280;68315;48.608;11.436;2024-02-15T04:06:46;97673.78;;;7.83
78917;BMP280;68315;48.608;11.436;2024-02-15T04:09:11;97677.97;;;7.84
78917;BMP280;68315;48.608;11.436;2024-02-15T04:11:36;97677.50;;;7.86
78917;BMP280;68315;48.608;11.436;2024-02-15T04:14:03;97681.47;;;7.90
78917;BMP280;68315;48.608;11.436;2024-02-15T04:16:28;97679.72;;;7.93
78917;BMP280;68315;48.608;11.436;2024-02-15T04:18:55;97682.19;;;7.96
78917;BMP280;68315;48.608;11.436;2024-02-15T04:21:22;97680.97;;;8.03
78917;BMP280;68315;48.608;11.436;2024-02-15T04:23:47;97684.94;;;8.07
78917;BMP280;68315;48.608;11.436;2024-02-15T04:26:13;97685.69;;;8.13
78917;BMP280;68315;48.608;11.436;2024-02-15T04:28:39;97684.16;;;8.18
78917;BMP280;68315;48.608;11.436;2024-02-15T04:31:04;97683.16;;;8.21
78917;BMP280;68315;48.608;11.436;2024-02-15T04:33:33;97679.19;;;8.22
78917;BMP280;68315;48.608;11.436;2024-02-15T04:35:58;97670.25;;;8.21
78917;BMP280;68315;48.608;11.436;2024-02-15T04:38:24;97672.72;;;8.19
78917;BMP280;68315;48.608;11.436;2024-02-15T04:40:50;97679.19;;;8.16
78917;BMP280;68315;48.608;11.436;2024-02-15T04:43:16;97670.50;;;8.12
78917;BMP280;68315;48.608;11.436;2024-02-15T04:45:41;97681.72;;;8.09
78917;BMP280;68315;48.608;11.436;2024-02-15T04:48:07;97680.72;;;8.06
78917;BMP280;68315;48.608;11.436;2024-02-15T04:50:32;97677.72;;;8.04
78917;BMP280;68315;48.608;11.436;2024-02-15T04:52:57;97680.22;;;8.02
78917;BMP280;68315;48.608;11.436;2024-02-15T04:55:22;97675.75;;;7.99
78917;BMP280;68315;48.608;11.436;2024-02-15T04:57:49;97679.47;;;7.96
78917;BMP280;68315;48.608;11.436;2024-02-15T05:00:15;97675.75;;;7.94
78917;BMP280;68315;48.608;11.436;2024-02-15T05:02:41;97666.56;;;7.91
78917;BMP280;68315;48.608;11.436;2024-02-15T06:14:18;97676.94;;;7.32
78917;BMP280;68315;48.608;11.436;2024-02-15T06:16:44;97681.66;;;7.26
78917;BMP280;68315;48.608;11.436;2024-02-15T06:19:09;97689.84;;;7.20
78917;BMP280;68315;48.608;11.436;2024-02-15T06:21:34;97681.38;;;7.13
78917;BMP280;68315;48.608;11.436;2024-02-15T06:24:00;97681.38;;;7.07
78917;BMP280;68315;48.608;11.436;2024-02-15T06:26:25;97692.53;;;7.03
78917;BMP280;68315;48.608;11.436;2024-02-15T06:28:50;97690.53;;;6.98
78917;BMP280;68315;48.608;11.436;2024-02-15T06:31:34;97690.00;;;6.94
78917;BMP280;68315;48.608;11.436;2024-02-15T06:34:18;97706.88;;;6.93
78917;BMP280;68315;48.608;11.436;2024-02-15T06:37:02;97698.69;;;6.93
78917;BMP280;68315;48.608;11.436;2024-02-15T06:39:46;97705.91;;;6.96
78917;BMP280;68315;48.608;11.436;2024-02-15T06:42:15;97706.91;;;6.98
78917;BMP280;68315;48.608;11.436;2024-02-15T06:44:46;97707.19;;;7.00
78917;BMP280;68315;48.608;11.436;2024-02-15T06:47:12;97702.94;;;6.99
78917;BMP280;68315;48.608;11.436;2024-02-15T06:49:41;97709.16;;;7.00
78917;BMP280;68315;48.608;11.436;2024-02-15T06:52:10;97715.63;;;7.02
78917;BMP280;68315;48.608;11.436;2024-02-15T06:54:40;97707.94;;;7.06
78917;BMP280;68315;48.608;11.436;2024-02-15T06:57:05;97709.19;;;7.11
78917;BMP280;68315;48.608;11.436;2024-02-15T06:59:31;97701.00;;;7.17
78917;BMP280;68315;48.608;11.436;2024-02-15T07:02:00;97708.97;;;7.20
78917;BMP280;68315;48.608;11.436;2024-02-15T07:04:25;97706.00;;;7.24
78917;BMP280;68315;48.608;11.436;2024-02-15T07:06:51;97706.50;;;7.28
78917;BMP280;68315;48.608;11.436;2024-02-15T07:09:19;97701.03;;;7.28
78917;BMP280;68315;48.608;11.436;2024-02-15T07:11:45;97702.53;;;7.29
78917;BMP280;68315;48.608;11.436;2024-02-15T07:14:12;97709.00;;;7.31
78917;BMP280;68315;48.608;11.436;2024-02-15T07:16:37;97711.97;;;7.33
78917;BMP280;68315;48.608;11.436;2024-02-15T07:19:03;97700.56;;;7.35
78917;BMP280;68315;48.608;11.436;2024-02-15T07:21:28;97705.06;;;7.38
78917;BMP280;68315;48.608;11.436;2024-02-15T07:23:55;97692.63;;;7.42
78917;BMP280;68315;48.608;11.436;2024-02-15T07:26:23;97693.91;;;7.47
78917;BMP280;68315;48.608;11.436;2024-02-15T07:28:53;97694.13;;;7.54
78917;BMP280;68315;48.608;11.436;2024-02-15T07:31:22;97696.63;;;7.63
78917;BMP280;68315;48.608;11.436;2024-02-15T07:33:50;97700.59;;;7.73
78917;BMP280;68315;48.608;11.436;2024-02-15T07:36:19;97687.19;;;7.81
78917;BMP280;68315;48.608;11.436;2024-02-15T07:38:46;97699.38;;;7.91
78917;BMP280;68315;48.608;11.436;2024-02-15T07:41:13;97698.88;;;7.98
78917;BMP280;68315;48.608;11.436;2024-02-15T07:43:38;97696.66;;;8.02
78917;BMP280;68315;48.608;11.436;2024-02-15T07:46:04;97697.13;;;8.06
78917;BMP280;68315;48.608;11.436;2024-02-15T07:48:29;97702.88;;;8.14
78917;BMP280;68315;48.608;11.436;2024-02-15T07:50:55;97696.63;;;8.19
78917;BMP280;68315;48.608;11.436;2024-02-15T07:53:20;97701.06;;;8.27
78917;BMP280;68315;48.608;11.436;2024-02-15T07:55:45;97699.56;;;8.37
78917;BMP280;68315;48.608;11.436;2024-02-15T07:58:13;97696.31;;;8.50
78917;BMP280;68315;48.608;11.436;2024-02-15T08:00:38;97703.72;;;8.66
78917;BMP280;68315;48.608;11.436;2024-02-15T08:03:04;97700.69;;;8.81
78917;BMP280;68315;48.608;11.436;2024-02-15T08:05:29;97701.63;;;8.94
78917;BMP280;68315;48.608;11.436;2024-02-15T08:07:54;97691.84;;;9.10
78917;BMP280;68315;48.608;11.436;2024-02-15T08:10:22;97695.00;;;9.19
78917;BMP280;68315;48.608;11.436;2024-02-15T08:12:48;97696.69;;;9.28
78917;BMP280;68315;48.608;11.436;2024-02-15T08:15:17;97687.38;;;9.42
78917;BMP280;68315;48.608;11.436;2024-02-15T08:17:44;97689.03;;;9.56
78917;BMP280;68315;48.608;11.436;2024-02-15T08:20:12;97687.66;;;9.74
78917;BMP280;68315;48.608;11.436;2024-02-15T08:22:38;97680.25;;;9.93
78917;BMP280;68315;48.608;11.436;2024-02-15T08:25:06;97674.09;;;10.11
78917;BMP280;68315;48.608;11.436;2024-02-15T08:27:31;97672.44;;;10.27
78917;BMP280;68315;48.608;11.436;2024-02-15T08:29:59;97664.81;;;10.38
78917;BMP280;68315;48.608;11.436;2024-02-15T08:32:24;97664.47;;;10.47
78917;BMP280;68315;48.608;11.436;2024-02-15T08:34:49;97660.09;;;10.57
78917;BMP280;68315;48.608;11.436;2024-02-15T08:37:15;97658.97;;;10.66
78917;BMP280;68315;48.608;11.436;2024-02-15T08:39:40;97663.38;;;10.74
78917;BMP280;68315;48.608;11.436;2024-02-15T08:42:05;97660.88;;;10.76
78917;BMP280;68315;48.608;11.436;2024-02-15T08:44:31;97648.56;;;10.77
78917;BMP280;68315;48.608;11.436;2024-02-15T08:46:56;97649.72;;;10.87
78917;BMP280;68315;48.608;11.436;2024-02-15T08:49:21;97647.31;;;10.97
78917;BMP280;68315;48.608;11.436;2024-02-15T08:51:47;97657.19;;;11.06
78917;BMP280;68315;48.608;11.436;2024-02-15T08:54:12;97651.78;;;11.19
78917;BMP280;68315;48.608;11.436;2024-02-15T08:56:37;97661.56;;;11.33
78917;BMP280;68315;48.608;11.436;2024-02-15T08:59:02;97651.75;;;11.50
78917;BMP280;68315;48.608;11.436;2024-02-15T09:01:28;97645.25;;;11.66
78917;BMP280;68315;48.608;11.436;2024-02-15T09:03:53;97654.47;;;11.82
78917;BMP280;68315;48.608;11.436;2024-02-15T09:06:18;97657.25;;;11.95
78917;BMP280;68315;48.608;11.436;2024-02-15T09:08:44;97653.13;;;12.02
78917;BMP280;68315;48.608;11.436;2024-02-15T09:11:09;97652.16;;;12.12
78917;BMP280;68315;48.608;11.436;2024-02-15T09:13:37;97651.84;;;12.16
78917;BMP280;68315;48.608;11.436;2024-02-15T09:16:03;97647.41;;;12.26
78917;BMP280;68315;48.608;11.436;2024-02-15T09:18:28;97653.75;;;12.34
78917;BMP280;68315;48.608;11.436;2024-02-15T09:20:53;97644.53;;;12.44
78917;BMP280;68315;48.608;11.436;2024-02-15T09:23:21;97654.44;;;12.60
78917;BMP280;68315;48.608;11.436;2024-02-15T09:25:48;97640.94;;;12.83
78917;BMP280;68315;48.608;11.436;2024-02-15T09:28:15;97645.00;;;13.03
78917;BMP280;68315;48.608;11.436;2024-02-15T09:30:40;97630.72;;;13.12
78917;BMP280;68315;48.608;11.436;2024-02-15T09:33:05;97627.66;;;13.15
78917;BMP280;68315;48.608;11.436;2024-02-15T09:35:31;97620.50;;;13.20
78917;BMP280;68315;48.608;11.436;2024-02-15T09:37:56;97620.56;;;13.27
78917;BMP280;68315;48.608;11.436;2024-02-15T09:40:22;97629.47;;;13.33
78917;BMP280;68315;48.608;11.436;2024-02-15T09:42:51;97624.59;;;13.47
78917;BMP280;68315;48.608;11.436;2024-02-15T09:45:17;97614.41;;;13.63
78917;BMP280;68315;48.608;11.436;2024-02-15T09:47:44;97620.72;;;13.71
78917;BMP280;68315;48.608;11.436;2024-02-15T09:50:11;97616.56;;;13.77
78917;BMP280;68315;48.608;11.436;2024-02-15T09:52:39;97619.22;;;13.90
78917;BMP280;68315;48.608;11.436;2024-02-15T09:55:07;97609.03;;;14.13
78917;BMP280;68315;48.608;11.436;2024-02-15T09:57:35;97606.75;;;14.48
78917;BMP280;68315;48.608;11.436;2024-02-15T10:00:01;97607.22;;;14.82
78917;BMP280;68315;48.608;11.436;2024-02-15T10:02:28;97602.81;;;15.16
78917;BMP280;68315;48.608;11.436;2024-02-15T10:04:55;97602.28;;;15.40
78917;BMP280;68315;48.608;11.436;2024-02-15T10:07:25;97598.00;;;15.55
78917;BMP280;68315;48.608;11.436;2024-02-15T10:09:52;97595.97;;;15.63
78917;BMP280;68315;48.608;11.436;2024-02-15T10:12:17;97596.16;;;15.57
78917;BMP280;68315;48.608;11.436;2024-02-15T10:14:50;97601.91;;;15.52
78917;BMP280;68315;48.608;11.436;2024-02-15T10:17:18;97596.34;;;15.44
78917;BMP280;68315;48.608;11.436;2024-02-15T10:19:43;97589.38;;;15.43
78917;BMP280;68315;48.608;11.436;2024-02-15T10:22:10;97587.31;;;15.51
78917;BMP280;68315;48.608;11.436;2024-02-15T10:24:36;97594.81;;;15.81
78917;BMP280;68315;48.608;11.436;2024-02-15T10:27:03;97588.84;;;15.99
78917;BMP280;68315;48.608;11.436;2024-02-15T10:29:29;97587.09;;;16.19
78917;BMP280;68315;48.608;11.436;2024-02-15T10:31:59;97574.00;;;16.52
78917;BMP280;68315;48.608;11.436;2024-02-15T10:34:24;97581.00;;;16.85
78917;BMP280;68315;48.608;11.436;2024-02-15T10:37:09;97573.34;;;17.17
78917;BMP280;68315;48.608;11.436;2024-02-15T10:39:36;97578.78;;;17.49
78917;BMP280;68315;48.608;11.436;2024-02-15T10:42:01;97572.41;;;17.74
78917;BMP280;68315;48.608;11.436;2024-02-15T10:44:28;97569.13;;;17.85
78917;BMP280;68315;48.608;11.436;2024-02-15T10:46:53;97566.41;;;17.94
78917;BMP280;68315;48.608;11.436;2024-02-15T10:49:23;97557.81;;;18.00
78917;BMP280;68315;48.608;11.436;2024-02-15T10:51:56;97563.94;;;18.15
78917;BMP280;68315;48.608;11.436;2024-02-15T10:54:34;97560.84;;;18.38
78917;BMP280;68315;48.608;11.436;2024-02-15T10:57:05;97553.44;;;18.59
78917;BMP280;68315;48.608;11.436;2024-02-15T10:59:34;97552.06;;;18.78
78917;BMP280;68315;48.608;11.436;2024-02-15T11:02:21;97543.03;;;18.96
78917;BMP280;68315;48.608;11.436;2024-02-15T11:04:52;97534.81;;;19.08
78917;BMP280;68315;48.608;11.436;2024-02-15T11:07:22;97538.97;;;19.26
78917;BMP280;68315;48.608;11.436;2024-02-15T11:09:48;97541.19;;;19.46
78917;BMP280;68315;48.608;11.436;2024-02-15T11:12:14;97532.97;;;19.48
78917;BMP280;68315;48.608;11.436;2024-02-15T11:14:44;97535.34;;;19.42
78917;BMP280;68315;48.608;11.436;2024-02-15T11:17:09;97528.88;;;19.40
78917;BMP280;68315;48.608;11.436;2024-02-15T11:22:14;97514.19;;;19.58
78917;BMP280;68315;48.608;11.436;2024-02-15T11:24:49;97514.03;;;19.28
78917;BMP280;68315;48.608;11.436;2024-02-15T11:27:28;97510.69;;;19.20
78917;BMP280;68315;48.608;11.436;2024-02-15T11:29:57;97500.34;;;18.84
78917;BMP280;68315;48.608;11.436;2024-02-15T11:32:43;97496.81;;;18.74
78917;BMP280;68315;48.608;11.436;2024-02-15T11:35:16;97487.88;;;18.76
78917;BMP280;68315;48.608;11.436;2024-02-15T11:45:20;97468.28;;;19.50
78917;BMP280;68315;48.608;11.436;2024-02-15T11:47:50;97470.88;;;19.67
78917;BMP280;68315;48.608;11.436;2024-02-15T11:50:17;97465.97;;;19.87
78917;BMP280;68315;48.608;11.436;2024-02-15T11:52:47;97466.72;;;19.87
78917;BMP280;68315;48.608;11.436;2024-02-15T11:55:17;97466.63;;;19.75
78917;BMP280;68315;48.608;11.436;2024-02-15T11:57:44;97459.78;;;19.19
78917;BMP280;68315;48.608;11.436;2024-02-15T12:00:26;97456.53;;;18.94
78917;BMP280;68315;48.608;11.436;2024-02-15T12:03:10;97461.53;;;19.15
78917;BMP280;68315;48.608;11.436;2024-02-15T12:05:55;97458.28;;;19.37
78917;BMP280;68315;48.608;11.436;2024-02-15T12:08:39;97449.75;;;19.54
78917;BMP280;68315;48.608;11.436;2024-02-15T12:11:23;97445.13;;;19.28
78917;BMP280;68315;48.608;11.436;2024-02-15T12:14:07;97439.66;;;19.30
78917;BMP280;68315;48.608;11.436;2024-02-15T12:17:03;97441.00;;;19.20
78917;BMP280;68315;48.608;11.436;2024-02-15T12:19:48;97443.00;;;18.81
78917;BMP280;68315;48.608;11.436;2024-02-15T12:22:21;97439.13;;;18.38
78917;BMP280;68315;48.608;11.436;2024-02-15T12:25:01;97443.38;;;18.49
78917;BMP280;68315;48.608;11.436;2024-02-15T12:27:27;97441.06;;;18.55
78917;BMP280;68315;48.608;11.436;2024-02-15T12:29:56;97438.56;;;18.49
78917;BMP280;68315;48.608;11.436;2024-02-15T12:32:23;97434.81;;;18.64
78917;BMP280;68315;48.608;11.436;2024-02-15T12:34:50;97429.25;;;18.93
78917;BMP280;68315;48.608;11.436;2024-02-15T12:37:18;97429.25;;;19.31
78917;BMP280;68315;48.608;11.436;2024-02-15T12:39:43;97435.69;;;19.62
78917;BMP280;68315;48.608;11.436;2024-02-15T12:42:08;97418.56;;;19.27
78917;BMP280;68315;48.608;11.436;2024-02-15T12:44:35;97418.13;;;18.93
78917;BMP280;68315;48.608;11.436;2024-02-15T12:47:00;97418.84;;;18.93
78917;BMP280;68315;48.608;11.436;2024-02-15T12:49:29;97423.25;;;19.25
78917;BMP280;68315;48.608;11.436;2024-02-15T12:55:26;97414.47;;;19.88
78917;BMP280;68315;48.608;11.436;2024-02-15T12:57:53;97402.25;;;19.93
78917;BMP280;68315;48.608;11.436;2024-02-15T13:00:24;97404.22;;;19.80
78917;BMP280;68315;48.608;11.436;2024-02-15T13:03:02;97393.38;;;19.65
78917;BMP280;68315;48.608;11.436;2024-02-15T13:05:29;97398.19;;;19.74
78917;BMP280;68315;48.608;11.436;2024-02-15T13:07:55;97395.09;;;19.90
78917;BMP280;68315;48.608;11.436;2024-02-15T13:10:21;97389.91;;;19.96
78917;BMP280;68315;48.608;11.436;2024-02-15T13:12:47;97395.97;;;20.13
78917;BMP280;68315;48.608;11.436;2024-02-15T13:15:14;97390.72;;;20.38
78917;BMP280;68315;48.608;11.436;2024-02-15T13:17:43;97391.63;;;20.73
78917;BMP280;68315;48.608;11.436;2024-02-15T13:20:09;97389.19;;;21.00
78917;BMP280;68315;48.608;11.436;2024-02-15T13:22:38;97379.66;;;20.61
78917;BMP280;68315;48.608;11.436;2024-02-15T13:25:05;97372.97;;;20.03
78917;BMP280;68315;48.608;11.436;2024-02-15T13:27:32;97372.41;;;19.64
78917;BMP280;68315;48.608;11.436;2024-02-15T13:29:58;97372.09;;;19.60
78917;BMP280;68315;48.608;11.436;2024-02-15T13:32:23;97359.66;;;19.52
78917;BMP280;68315;48.608;11.436;2024-02-15T13:34:48;97360.09;;;19.58
78917;BMP280;68315;48.608;11.436;2024-02-15T13:37:20;97366.41;;;19.58
78917;BMP280;68315;48.608;11.436;2024-02-15T13:39:47;97360.66;;;19.66
78917;BMP280;68315;48.608;11.436;2024-02-15T13:42:12;97357.41;;;19.69
78917;BMP280;68315;48.608;11.436;2024-02-15T13:44:38;97359.91;;;20.06
78917;BMP280;68315;48.608;11.436;2024-02-15T13:47:03;97363.59;;;20.50
78917;BMP280;68315;48.608;11.436;2024-02-15T13:49:28;97356.13;;;20.85
78917;BMP280;68315;48.608;11.436;2024-02-15T13:51:56;97355.81;;;21.02
78917;BMP280;68315;48.608;11.436;2024-02-15T13:54:27;97353.16;;;20.83
78917;BMP280;68315;48.608;11.436;2024-02-15T13:56:52;97344.00;;;20.08
78917;BMP280;68315;48.608;11.436;2024-02-15T13:59:17;97353.81;;;19.48
78917;BMP280;68315;48.608;11.436;2024-02-15T14:01:43;97355.94;;;19.19
78917;BMP280;68315;48.608;11.436;2024-02-15T14:04:11;97357.88;;;18.97
78917;BMP280;68315;48.608;11.436;2024-02-15T14:06:36;97354.66;;;18.91
78917;BMP280;68315;48.608;11.436;2024-02-15T14:09:03;97345.84;;;18.85
78917;BMP280;68315;48.608;11.436;2024-02-15T14:11:28;97339.69;;;18.96
78917;BMP280;68315;48.608;11.436;2024-02-15T14:13:53;97339.41;;;19.11
78917;BMP280;68315;48.608;11.436;2024-02-15T14:16:23;97336.69;;;19.32
78917;BMP280;68315;48.608;11.436;2024-02-15T14:18:48;97333.53;;;19.57
78917;BMP280;68315;48.608;11.436;2024-02-15T14:21:15;97338.59;;;19.79
78917;BMP280;68315;48.608;11.436;2024-02-15T14:23:41;97327.91;;;20.07
78917;BMP280;68315;48.608;11.436;2024-02-15T14:26:07;97329.78;;;20.35
78917;BMP280;68315;48.608;11.436;2024-02-15T14:28:32;97337.47;;;20.46
78917;BMP280;68315;48.608;11.436;2024-02-15T14:30:57;97337.75;;;20.61
78917;BMP280;68315;48.608;11.436;2024-02-15T14:33:41;97330.75;;;20.93
78917;BMP280;68315;48.608;11.436;2024-02-15T14:36:06;97329.47;;;21.17
78917;BMP280;68315;48.608;11.436;2024-02-15T14:38:32;97327.53;;;21.31
78917;BMP280;68315;48.608;11.436;2024-02-15T14:40:59;97321.84;;;21.41
78917;BMP280;68315;48.608;11.436;2024-02-15T14:43:26;97323.09;;;21.49
78917;BMP280;68315;48.608;11.436;2024-02-15T14:45:52;97326.25;;;21.55
78917;BMP280;68315;48.608;11.436;2024-02-15T14:48:18;97330.75;;;21.72
78917;BMP280;68315;48.608;11.436;2024-02-15T14:50:45;97326.72;;;21.86
78917;BMP280;68315;48.608;11.436;2024-02-15T14:53:12;97325.72;;;21.93
78917;BMP280;68315;48.608;11.436;2024-02-15T14:55:38;97316.47;;;22.02
78917;BMP280;68315;48.608;11.436;2024-02-15T14:58:05;97318.31;;;22.09
78917;BMP280;68315;48.608;11.436;2024-02-15T15:00:32;97309.84;;;22.21
78917;BMP280;68315;48.608;11.436;2024-02-15T15:02:58;97309.09;;;22.32
78917;BMP280;68315;48.608;11.436;2024-02-15T15:05:23;97306.03;;;22.39
78917;BMP280;68315;48.608;11.436;2024-02-15T15:08:07;97310.06;;;22.36
78917;BMP280;68315;48.608;11.436;2024-02-15T15:10:51;97311.03;;;22.41
78917;BMP280;68315;48.608;11.436;2024-02-15T15:13:35;97309.28;;;22.47
78917;BMP280;68315;48.608;11.436;2024-02-15T15:16:02;97305.66;;;22.45
78917;BMP280;68315;48.608;11.436;2024-02-15T15:18:32;97302.16;;;22.33
78917;BMP280;68315;48.608;11.436;2024-02-15T15:20:58;97310.22;;;22.15
78917;BMP280;68315;48.608;11.436;2024-02-15T15:23:24;97308.44;;;21.97
78917;BMP280;68315;48.608;11.436;2024-02-15T15:25:50;97303.84;;;21.90
78917;BMP280;68315;48.608;11.436;2024-02-15T15:28:15;97298.50;;;21.71